Bookmark and Share
Track history (hours):
 

Pacific Wisdom

Last reported at 2014-Mar-08 09:23 UTC. Time now 2014-Apr-20 13:19 UTC.
Position N 21°36' E 113°43'.
Warning: this ship's position is 43 days out of date.

Length 180 m; draft 6.7 m.

Type: Cargo ship. MMSI: 477298000.

NotesDate/timePositionNaut miles runAvg speedWind from/ knotsBaromVisibWave heightAir tempDewpointWater temp
2014-Mar-08 09:23N 21°36' E 113°43'1713.1
2014-Mar-08 08:06N 21°49' E 113°54'1016.7
2014-Mar-08 07:31N 21°57' E 114°01'9 8.1
2014-Mar-08 06:28N 22°05' E 114°04'6 2.5
2014-Mar-08 04:08N 22°10' E 114°07'0 0.0
2014-Mar-08 03:19N 22°10' E 114°07'0 0.0
2014-Mar-07 23:17N 22°10' E 114°07'1 0.7
2014-Mar-07 22:12N 22°09' E 114°07'5 5.7
2014-Mar-07 21:23N 22°08' E 114°12'14911.5
2014-Mar-07 08:26N 22°59' E 116°44'1111.9
2014-Mar-07 07:33N 23°08' E 116°50'8 8.5
2014-Mar-07 06:33N 23°16' E 116°48'6 5.2
2014-Mar-07 05:29N 23°20' E 116°44'0 0.0
2014-Mar-07 04:29N 23°20' E 116°44'0 0.0
2014-Mar-07 03:29N 23°20' E 116°44'0 0.0
2014-Mar-07 02:29N 23°20' E 116°44'0 0.0
2014-Mar-07 01:29N 23°20' E 116°44'0 0.0
2014-Mar-07 00:29N 23°20' E 116°44'0 0.0
2014-Mar-06 23:29N 23°20' E 116°44'0 0.0
2014-Mar-06 22:29N 23°20' E 116°44'0 0.0
2014-Mar-06 21:23N 23°20' E 116°44'0 0.0
2014-Mar-06 13:29N 23°20' E 116°44'0 0.0
2014-Mar-06 12:29N 23°20' E 116°44'0 0.0
2014-Mar-06 11:29N 23°20' E 116°44'0 0.0
2014-Mar-06 10:29N 23°20' E 116°44'0 0.0
2014-Mar-06 09:29N 23°20' E 116°44'0 0.0
2014-Mar-06 08:29N 23°20' E 116°44'0 0.0
2014-Mar-06 07:23N 23°20' E 116°44'0 0.0
2014-Mar-06 06:29N 23°20' E 116°44'0 0.0
2014-Mar-06 05:29N 23°20' E 116°44'0 0.0
2014-Mar-06 04:29N 23°20' E 116°44'0 0.0
2014-Mar-06 03:29N 23°20' E 116°44'0 0.0
2014-Mar-06 02:23N 23°20' E 116°44'0 0.0
2014-Mar-06 01:29N 23°20' E 116°44'0 0.0
2014-Mar-06 00:29N 23°20' E 116°44'0 0.0
2014-Mar-05 23:29N 23°20' E 116°44'0 0.0
2014-Mar-05 22:29N 23°20' E 116°44'0 0.0
2014-Mar-05 21:29N 23°20' E 116°44'0 0.0
2014-Mar-05 20:29N 23°20' E 116°44'0 0.0
2014-Mar-05 18:29N 23°20' E 116°44'0 0.0
2014-Mar-05 17:29N 23°20' E 116°44'0 0.0
2014-Mar-05 16:29N 23°20' E 116°44'0 0.0
2014-Mar-05 15:29N 23°20' E 116°44'0 0.0
2014-Mar-05 14:29N 23°20' E 116°44'0 0.0
2014-Mar-05 13:11N 23°20' E 116°44'0 0.0
2014-Mar-05 12:29N 23°20' E 116°44'0 0.0
2014-Mar-05 11:29N 23°20' E 116°44'0 0.0
2014-Mar-05 10:29N 23°20' E 116°44'0 0.0
2014-Mar-05 09:29N 23°20' E 116°44'0 0.1
2014-Mar-05 08:33N 23°20' E 116°44'6 6.2
2014-Mar-05 07:33N 23°16' E 116°49'2 2.1
2014-Mar-05 06:29N 23°15' E 116°51'0 0.0
2014-Mar-05 05:29N 23°15' E 116°51'0 0.0
2014-Mar-05 04:29N 23°15' E 116°51'0 0.0
2014-Mar-05 03:23N 23°15' E 116°51'0 0.0
2014-Mar-05 02:23N 23°15' E 116°51'0 0.0
2014-Mar-05 01:29N 23°15' E 116°51'0 0.0
2014-Mar-05 00:29N 23°15' E 116°51'0 0.0
2014-Mar-04 23:23N 23°15' E 116°51'0 0.1
2014-Mar-04 22:29N 23°15' E 116°51'0 0.0
2014-Mar-04 21:17N 23°15' E 116°51'0 0.0
2014-Mar-04 20:29N 23°15' E 116°51'0 0.2
2014-Mar-04 19:29N 23°15' E 116°51'0 0.1
2014-Mar-04 18:29N 23°15' E 116°51'0 0.1
2014-Mar-04 17:29N 23°15' E 116°51'0 0.0
2014-Mar-04 16:29N 23°15' E 116°51'0 0.1
2014-Mar-04 15:29N 23°15' E 116°51'0 0.1
2014-Mar-04 14:29N 23°15' E 116°51'0 0.0
2014-Mar-04 13:29N 23°15' E 116°51'0 0.1
2014-Mar-04 11:29N 23°15' E 116°51'0 0.1
2014-Mar-04 10:29N 23°15' E 116°51'0 0.0
2014-Mar-04 09:29N 23°15' E 116°51'0 0.0
2014-Mar-04 08:29N 23°15' E 116°51'0 0.2
2014-Mar-04 07:29N 23°15' E 116°51'0 0.1
2014-Mar-04 06:29N 23°15' E 116°51'0 0.0
2014-Mar-04 05:29N 23°15' E 116°51'0 0.1
2014-Mar-04 04:29N 23°15' E 116°51'0 0.0
2014-Mar-04 03:29N 23°15' E 116°51'0 0.0
2014-Mar-04 02:29N 23°15' E 116°51'0 0.1
2014-Mar-04 01:29N 23°15' E 116°51'0 0.1
2014-Mar-03 23:29N 23°15' E 116°51'0 0.0
2014-Mar-03 22:23N 23°15' E 116°51'0 0.0
2014-Mar-03 21:29N 23°15' E 116°51'0 0.0
2014-Mar-03 20:29N 23°15' E 116°51'0 0.1
2014-Mar-03 19:29N 23°15' E 116°51'0 0.0
2014-Mar-03 18:29N 23°15' E 116°51'0 0.1
2014-Mar-03 17:29N 23°15' E 116°51'0 0.0
2014-Mar-03 16:29N 23°15' E 116°51'0 0.0
2014-Mar-03 15:05N 23°15' E 116°51'0 0.0
2014-Mar-03 14:29N 23°15' E 116°51'0 0.0
2014-Mar-03 13:29N 23°15' E 116°51'0 0.1
2014-Mar-03 12:29N 23°15' E 116°51'0 0.0
2014-Mar-03 11:29N 23°15' E 116°51'0 0.0
2014-Mar-03 10:29N 23°15' E 116°51'0 0.1
2014-Mar-03 09:29N 23°15' E 116°51'0 0.0
2014-Mar-03 08:29N 23°15' E 116°51'0 0.1
2014-Mar-03 07:23N 23°15' E 116°51'0 0.1
2014-Mar-03 06:29N 23°15' E 116°51'0 0.1
2014-Mar-03 05:29N 23°15' E 116°51'0 0.1
2014-Mar-03 04:29N 23°15' E 116°51'0 0.0
2014-Mar-03 03:29N 23°15' E 116°51'0 0.0
2014-Mar-03 02:29N 23°15' E 116°51'0 0.0
2014-Mar-03 00:29N 23°15' E 116°51'0 0.0
2014-Mar-02 23:29N 23°15' E 116°51'0 0.0
2014-Mar-02 22:17N 23°15' E 116°51'0 0.1
2014-Mar-02 21:11N 23°15' E 116°51'0 0.0
2014-Mar-02 20:23N 23°15' E 116°51'0 0.0
2014-Mar-02 18:23N 23°15' E 116°51'0 0.0
2014-Mar-02 16:05N 23°15' E 116°51'0 0.0
2014-Mar-02 15:29N 23°15' E 116°51'0 0.0
2014-Mar-02 14:29N 23°15' E 116°51'0 0.0
2014-Mar-02 13:29N 23°15' E 116°51'0 0.0
2014-Mar-02 12:29N 23°15' E 116°51'0 0.0
2014-Mar-02 11:29N 23°15' E 116°51'0 0.0
2014-Mar-02 10:29N 23°15' E 116°51'0 0.0
2014-Mar-02 08:29N 23°15' E 116°51'0 0.0
2014-Mar-02 07:23N 23°15' E 116°51'0 0.1
2014-Mar-02 06:17N 23°15' E 116°51'0 0.0
2014-Mar-02 05:29N 23°15' E 116°51'0 0.0
2014-Mar-02 04:29N 23°15' E 116°51'0 0.0
2014-Mar-02 03:23N 23°15' E 116°51'0 0.0
2014-Mar-02 01:23N 23°15' E 116°51'0 0.0
2014-Mar-02 00:29N 23°15' E 116°51'0 0.0
2014-Mar-01 23:29N 23°15' E 116°51'0 0.0
2014-Mar-01 22:29N 23°15' E 116°51'0 0.0
2014-Mar-01 21:11N 23°15' E 116°51'0 0.1
2014-Mar-01 20:29N 23°15' E 116°51'0 0.0
2014-Mar-01 19:29N 23°15' E 116°51'0 0.1
2014-Mar-01 18:11N 23°15' E 116°51'0 0.3
2014-Mar-01 17:29N 23°15' E 116°51'0 0.0
2014-Mar-01 16:29N 23°15' E 116°51'0 0.0
2014-Mar-01 15:29N 23°15' E 116°51'0 0.0
2014-Mar-01 14:29N 23°15' E 116°51'0 0.0
2014-Mar-01 13:17N 23°15' E 116°51'0 0.0
2014-Mar-01 12:29N 23°15' E 116°51'0 0.0
2014-Mar-01 11:29N 23°15' E 116°51'0 0.2
2014-Mar-01 10:29N 23°15' E 116°51'0 0.0
2014-Mar-01 09:23N 23°15' E 116°51'0 0.0
2014-Mar-01 08:29N 23°15' E 116°51'0 0.0
2014-Mar-01 07:29N 23°15' E 116°51'0 0.0
2014-Mar-01 06:29N 23°15' E 116°51'0 0.1
2014-Mar-01 05:29N 23°15' E 116°51'0 0.1
2014-Mar-01 04:29N 23°15' E 116°51'0 0.0
2014-Mar-01 03:29N 23°15' E 116°51'0 0.0
2014-Mar-01 02:29N 23°15' E 116°51'0 0.0
2014-Mar-01 01:29N 23°15' E 116°51'0 0.0
2014-Mar-01 00:29N 23°15' E 116°51'0 0.1
2014-Feb-28 23:29N 23°15' E 116°51'1 1.3
2014-Feb-28 22:33N 23°14' E 116°52'6 6.0
2014-Feb-28 21:34N 23°10' E 116°57'7 6.8
2014-Feb-28 20:34N 23°04' E 116°59'  

Dump ship's entire track history

sailing weather and tide predictions

Pacific Wisdom — VRUD2 — position and weather